Hovedside
METAR-TAF:

METAR-TAF

Lufthavner :

Tahiti internasjonale lufthavn

Tahiti, Fransk Polynesia

breddegrad: 17-33S, lengdegrad: 149-37W, høyde over havet: 2 m

Gjeldene værobservasjon

Denne rapporten ble laget for 26 minutter siden, klokken 10:30 UTC
Vind 6 kt fra Sør
Temperatur 23°C
Luftfuktighet 73%
Trykk 1011 hPa
Sikt 10 km eller mer
Få skyer i en høyde av 2300 ft

METAR: NTAA 211030Z 18006KT 9999 FEW023 23/18 Q1011 NOSIG

Tid: 00:56 (10:56 UTC)

Varsel

Denne rapporten ble laget for 3 timer og 46 minutter siden, klokken 07:10 UTC
Varsel gyldig fra 21. klokken 07 UTC til 22. klokken 12 UTC
Vind 5 kt fra skiftende retning
Sikt 10 km eller mer
Få skyer i en høyde av 2000 ft
Brutte skyer i en høyde av 6600 ft
Midlertidig
fra 21. klokken 07 UTC til 22. klokken 12 UTC
Vind 12 kt fra Sør-sørøst

TAF: NTAA 210710Z 2107/2212 VRB05KT 9999 FEW020 BKN066 TEMPO 2107/2212 16012KT

Værobservasjoner og værvarsel for over 4000 flyplasser (METAR- og TAF-rapporter).

Tilgjengelige stasjoner er representert av de røde og gule prikkene på kartet.

Hold musepekeren over prikken for å se navnet på stasjonen.

Klikk så for å se værobservasjoner og -varsler.

For å forandre kartet kan du klikke på den grønne knappen med svart kryss for å zoome inn, på den grønne knappen med strek for å zoome ut, eller på de grønne pilene for å se tilstøtende kart.


METAR-TAF: